YASF weather

Ashford Airport
New South Wales, Australia

Public forecast

Using degrees Celsius for public forecast. Weather courtesy of forecast.io.

Closest aviation weather report (METAR) to Ashford Airport

Closest report is Moree Airport, 64.0 nm (118.5 km) W. Retrieved 2020/07/02 05:00 UTC (47 minutes ago):

YMOR 020500Z AUTO 01008KT 9999 // NCD 23/10 Q1018

Closest aviation forecast (TAF) to Ashford Airport

Closest forecast is Tamworth Airport, 106.6 nm (197.5 km) S. Retrieved 2020-07-02 00:36 UTC (5 hours ago):

TAF TAF YSTW 012317Z 0200/0218 15005KT CAVOK FM020100 35010KT CAVOK FM020900 01005KT CAVOK